Time;durP1;ratioP1;P1;durP2;ratioP2;P2;SDS_P1;SDS_P2;PMS_P1;PMS_P2;Temp;Humidity;BMP_temperature;BMP_pressure;BME280_temperature;BME280_humidity;BME280_pressure;Samples;Min_cycle;Max_cycle;Signal;HPM_P1;HPM_P2
2022/03/10 00:02:03;;;;;;;27.13;18.60;;;;;;;2.49;68.30;97251.56;5119259;28;20367;-55
2022/03/10 00:04:30;;;;;;;28.67;20.60;;;;;;;2.36;69.04;97250.53;5113782;28;20217;-56
2022/03/10 00:06:58;;;;;;;26.90;19.07;;;;;;;2.37;68.35;97250.44;5113026;28;20204;-56
2022/03/10 00:09:24;;;;;;;27.23;19.43;;;;;;;2.33;68.72;97248.94;5114883;28;20549;-58
2022/03/10 00:11:51;;;;;;;26.97;19.67;;;;;;;2.16;69.60;97253.31;5115902;28;20519;-57
2022/03/10 00:14:18;;;;;;;26.90;19.07;;;;;;;2.13;69.91;97250.81;5114732;28;20632;-57
2022/03/10 00:16:45;;;;;;;29.97;19.50;;;;;;;2.09;70.47;97257.16;5117053;28;20215;-57
2022/03/10 00:19:12;;;;;;;28.90;21.43;;;;;;;2.12;69.97;97262.19;5122351;28;20216;-55
2022/03/10 00:21:38;;;;;;;30.20;20.97;;;;;;;2.13;70.84;97271.69;5126283;28;20218;-57
2022/03/10 00:24:06;;;;;;;26.17;18.47;;;;;;;2.19;70.28;97282.69;5123792;28;20231;-56
2022/03/10 00:26:32;;;;;;;26.37;20.10;;;;;;;2.23;69.89;97278.16;5126201;28;20628;-55
2022/03/10 00:28:59;;;;;;;27.87;18.90;;;;;;;2.18;69.60;97274.94;5120563;28;20209;-57
2022/03/10 00:31:28;;;;;;;26.47;19.13;;;;;;;2.12;69.87;97276.09;5117664;28;20274;-56
2022/03/10 00:33:56;;;;;;;26.20;18.70;;;;;;;2.05;70.52;97277.31;5119875;28;20227;-57
2022/03/10 00:36:23;;;;;;;25.53;18.87;;;;;;;2.01;70.93;97283.59;5116268;28;20246;-56
2022/03/10 00:38:50;;;;;;;30.07;19.60;;;;;;;2.00;71.25;97295.78;5124597;28;20221;-57
2022/03/10 00:41:16;;;;;;;29.07;20.37;;;;;;;2.00;71.70;97294.94;5124096;28;20204;-55
2022/03/10 00:43:43;;;;;;;27.73;19.33;;;;;;;1.99;71.74;97293.25;5120114;28;20226;-57
2022/03/10 00:46:09;;;;;;;26.70;18.77;;;;;;;1.95;71.47;97289.94;5115286;28;20227;-55
2022/03/10 00:48:38;;;;;;;27.40;20.73;;;;;;;1.91;71.84;97298.84;5114336;28;20562;-57
2022/03/10 00:51:05;;;;;;;30.07;20.87;;;;;;;1.90;73.22;97294.56;5113942;28;20550;-55
2022/03/10 00:53:31;;;;;;;28.10;20.67;;;;;;;1.94;73.03;97285.69;5114514;28;20234;-56
2022/03/10 00:55:58;;;;;;;28.60;20.47;;;;;;;2.00;73.56;97295.78;5114247;28;20206;-57
2022/03/10 00:58:24;;;;;;;30.33;20.37;;;;;;;2.06;73.32;97291.19;5114057;28;20286;-55
2022/03/10 01:00:51;;;;;;;28.63;20.10;;;;;;;2.07;73.16;97292.88;5117164;28;20212;-57
2022/03/10 01:03:18;;;;;;;24.70;18.77;;;;;;;2.04;73.44;97296.50;5120487;28;20260;-57
2022/03/10 01:05:46;;;;;;;26.73;19.63;;;;;;;1.91;74.35;97298.84;5114227;28;20230;-57
2022/03/10 01:08:14;;;;;;;28.90;20.10;;;;;;;1.95;74.02;97308.19;5120044;28;20245;-55
2022/03/10 01:10:40;;;;;;;29.90;20.57;;;;;;;1.95;74.34;97296.91;5121840;28;20511;-57
2022/03/10 01:13:12;;;;;;;29.67;20.17;;;;;;;1.95;73.99;97297.78;5117330;28;20216;-56
2022/03/10 01:15:39;;;;;;;28.30;19.23;;;;;;;1.94;74.31;97295.25;5112969;28;20255;-56
2022/03/10 01:18:06;;;;;;;29.23;20.37;;;;;;;1.89;74.13;97303.28;5112135;28;20214;-56
2022/03/10 01:20:32;;;;;;;28.50;19.63;;;;;;;1.88;74.08;97300.75;5112563;28;20207;-57
2022/03/10 01:23:00;;;;;;;27.77;19.57;;;;;;;1.80;73.77;97302.91;5113078;28;20205;-56
2022/03/10 01:25:26;;;;;;;27.23;19.93;;;;;;;1.77;73.77;97303.06;5112485;28;20243;-56
2022/03/10 01:27:53;;;;;;;26.13;19.63;;;;;;;1.72;73.61;97305.88;5112306;28;20205;-57
2022/03/10 01:30:20;;;;;;;26.00;18.90;;;;;;;1.67;73.79;97312.19;5112617;28;20218;-55
2022/03/10 01:32:47;;;;;;;27.47;18.47;;;;;;;1.66;74.08;97305.31;5112673;28;20226;-57
2022/03/10 01:35:14;;;;;;;26.57;19.23;;;;;;;1.42;75.67;97307.28;5112587;28;20200;-56
2022/03/10 01:37:41;;;;;;;26.37;18.87;;;;;;;1.46;74.72;97309.69;5110558;28;20607;-56
2022/03/10 01:40:11;;;;;;;30.13;20.10;;;;;;;1.42;74.88;97302.09;5113296;28;20207;-57
2022/03/10 01:42:38;;;;;;;28.30;19.43;;;;;;;1.41;74.95;97306.47;5113968;28;20212;-56
2022/03/10 01:45:06;;;;;;;28.80;20.33;;;;;;;1.44;75.06;97311.53;5132298;28;20229;-55
2022/03/10 01:47:33;;;;;;;31.00;20.87;;;;;;;1.47;75.34;97314.00;5138794;28;20254;-55
2022/03/10 01:49:59;;;;;;;30.33;20.60;;;;;;;1.48;75.55;97312.25;5125423;28;20214;-56
2022/03/10 01:52:26;;;;;;;27.30;19.37;;;;;;;1.48;75.45;97304.44;5112254;28;20205;-57
2022/03/10 01:54:52;;;;;;;30.40;19.50;;;;;;;1.51;75.67;97306.88;5111792;28;20198;-57
2022/03/10 01:57:21;;;;;;;29.53;18.87;;;;;;;1.48;76.90;97310.50;5112728;28;20465;-57
2022/03/10 01:59:47;;;;;;;31.77;21.13;;;;;;;1.52;76.67;97309.41;5112336;28;20206;-57
2022/03/10 02:02:15;;;;;;;27.77;19.80;;;;;;;1.56;76.20;97306.69;5111853;28;20243;-56
2022/03/10 02:04:44;;;;;;;32.70;20.73;;;;;;;1.54;76.38;97311.94;5112097;28;20223;-56
2022/03/10 02:10:16;;;;;;;29.70;20.50;;;;;;;1.55;76.55;97308.44;5112185;28;20527;-57
2022/03/10 02:12:43;;;;;;;31.07;20.93;;;;;;;1.52;76.75;97312.00;5112095;28;20668;-57
2022/03/10 02:17:58;;;;;;;28.03;20.00;;;;;;;1.47;76.56;97305.34;5112168;28;20893;-57
2022/03/10 02:20:24;;;;;;;30.17;20.77;;;;;;;1.39;76.56;97304.84;5111848;28;20591;-56
2022/03/10 02:22:55;;;;;;;28.37;20.40;;;;;;;1.40;76.42;97306.53;5111431;28;20209;-56
2022/03/10 02:25:22;;;;;;;27.47;19.70;;;;;;;1.25;77.18;97302.03;5111913;28;20220;-56
2022/03/10 02:27:51;;;;;;;31.77;21.40;;;;;;;1.02;78.21;97302.25;5112029;28;20225;-57
2022/03/10 02:30:18;;;;;;;31.57;20.67;;;;;;;1.13;77.75;97300.00;5111087;28;20197;-58
2022/03/10 02:32:45;;;;;;;28.03;20.47;;;;;;;1.20;77.20;97296.19;5111771;28;20221;-56
2022/03/10 02:35:12;;;;;;;30.07;20.03;;;;;;;1.22;77.38;97302.16;5111514;28;20206;-56
2022/03/10 02:37:38;;;;;;;28.70;19.77;;;;;;;1.25;77.72;97304.63;5111889;28;21013;-56
2022/03/10 02:40:09;;;;;;;29.17;19.67;;;;;;;1.24;77.18;97297.75;5112981;28;20565;-56
2022/03/10 02:42:35;;;;;;;28.90;20.30;;;;;;;1.25;77.30;97295.06;5117995;28;20194;-56
2022/03/10 02:45:02;;;;;;;28.97;19.97;;;;;;;1.19;77.15;97300.56;5119236;28;20213;-57
2022/03/10 02:47:29;;;;;;;33.83;21.23;;;;;;;1.16;77.29;97307.66;5119094;28;20206;-56
2022/03/10 02:49:56;;;;;;;28.27;19.87;;;;;;;1.09;76.97;97306.25;5111863;28;20559;-56
2022/03/10 02:52:22;;;;;;;28.20;20.97;;;;;;;1.02;77.63;97300.47;5110998;28;21388;-56
2022/03/10 02:54:49;;;;;;;28.10;19.20;;;;;;;1.02;76.53;97295.28;5111257;28;20643;-56
2022/03/10 02:57:16;;;;;;;27.33;19.47;;;;;;;0.99;76.96;97298.84;5111168;28;20211;-55
2022/03/10 02:59:43;;;;;;;25.90;19.37;;;;;;;1.02;77.19;97291.81;5111495;28;20208;-56
2022/03/10 03:02:12;;;;;;;25.93;19.50;;;;;;;0.97;77.59;97305.03;5124710;28;20224;-57
2022/03/10 03:04:39;;;;;;;25.80;18.43;;;;;;;0.98;78.10;97301.53;5123258;28;20205;-56
2022/03/10 03:07:05;;;;;;;27.63;18.57;;;;;;;1.03;77.53;97301.34;5118285;28;20199;-57
2022/03/10 03:09:32;;;;;;;25.90;18.23;;;;;;;1.09;77.49;97299.28;5112359;28;20541;-57
2022/03/10 03:11:58;;;;;;;24.47;17.47;;;;;;;1.08;77.58;97307.16;5111062;28;20203;-56
2022/03/10 03:14:26;;;;;;;22.33;17.43;;;;;;;1.09;77.23;97311.47;5111315;28;20514;-56
2022/03/10 03:16:56;;;;;;;28.13;20.37;;;;;;;1.06;76.50;97303.78;5111455;28;20285;-56
2022/03/10 03:19:22;;;;;;;24.03;17.87;;;;;;;1.03;76.48;97296.94;5109685;28;20197;-57
2022/03/10 03:21:52;;;;;;;25.17;18.10;;;;;;;0.98;76.67;97299.78;5111435;28;20206;-57
2022/03/10 03:24:19;;;;;;;23.47;17.40;;;;;;;0.96;77.08;97296.38;5111499;28;20212;-57
2022/03/10 03:26:45;;;;;;;27.97;18.30;;;;;;;0.97;76.71;97311.09;5110871;28;20228;-56
2022/03/10 03:29:12;;;;;;;25.43;18.43;;;;;;;0.93;76.55;97301.72;5111392;28;20201;-57
2022/03/10 03:31:40;;;;;;;24.10;17.83;;;;;;;0.76;78.03;97306.84;5115270;28;20194;-57
2022/03/10 03:34:10;;;;;;;27.23;18.83;;;;;;;0.84;77.35;97304.75;5113388;28;20223;-57
2022/03/10 03:36:38;;;;;;;24.23;18.10;;;;;;;0.89;77.49;97301.91;5117890;28;20228;-57
2022/03/10 03:39:05;;;;;;;23.80;17.17;;;;;;;0.92;76.83;97302.63;5111006;28;20231;-57
2022/03/10 03:41:32;;;;;;;26.00;18.37;;;;;;;0.87;76.51;97307.22;5112788;28;20202;-57
2022/03/10 03:43:59;;;;;;;28.10;18.30;;;;;;;0.81;76.78;97311.84;5114967;28;20225;-57
2022/03/10 03:46:25;;;;;;;26.27;18.37;;;;;;;0.83;76.61;97308.25;5114208;28;20661;-57
2022/03/10 03:48:54;;;;;;;24.87;17.53;;;;;;;0.79;76.61;97311.91;5114801;28;20209;-56
2022/03/10 03:51:21;;;;;;;26.40;18.47;;;;;;;0.78;76.98;97314.59;5114610;28;20217;-57
2022/03/10 03:53:48;;;;;;;27.23;16.67;;;;;;;0.79;76.67;97309.31;5114773;28;20199;-55
2022/03/10 03:56:14;;;;;;;26.87;17.93;;;;;;;0.80;77.42;97313.59;5114784;28;20209;-56
2022/03/10 03:58:42;;;;;;;25.83;17.80;;;;;;;0.83;77.09;97323.88;5114424;28;20219;-57
2022/03/10 04:01:09;;;;;;;25.00;17.97;;;;;;;0.81;77.45;97325.72;5114234;28;20650;-55
2022/03/10 04:03:35;;;;;;;27.90;18.87;;;;;;;0.76;77.12;97322.47;5114555;28;20291;-57
2022/03/10 04:06:04;;;;;;;22.60;16.93;;;;;;;0.84;76.71;97322.13;5114942;28;20221;-55
2022/03/10 04:08:30;;;;;;;26.37;18.07;;;;;;;0.80;76.41;97331.81;5115039;28;20627;-57
2022/03/10 04:10:57;;;;;;;23.57;16.70;;;;;;;0.73;76.17;97332.16;5122449;28;20210;-55
2022/03/10 04:13:23;;;;;;;22.93;17.00;;;;;;;0.76;75.80;97319.00;5137507;28;20533;-56
2022/03/10 04:15:51;;;;;;;24.07;16.40;;;;;;;0.77;76.52;97329.38;5130914;28;20296;-57
2022/03/10 04:18:18;;;;;;;23.97;17.33;;;;;;;0.72;76.42;97326.09;5116505;28;20199;-57
2022/03/10 04:20:44;;;;;;;26.20;18.10;;;;;;;0.73;75.89;97326.94;5133774;28;20193;-56
2022/03/10 04:23:13;;;;;;;25.27;17.93;;;;;;;0.69;76.24;97328.84;5137548;28;20194;-57
2022/03/10 04:25:39;;;;;;;25.70;18.17;;;;;;;0.66;75.96;97333.34;5123086;28;20228;-57
2022/03/10 04:28:06;;;;;;;23.73;17.20;;;;;;;0.50;76.36;97326.16;5124426;28;20216;-57
2022/03/10 04:30:33;;;;;;;27.40;18.53;;;;;;;0.56;76.24;97329.44;5130883;28;20202;-57
2022/03/10 04:33:03;;;;;;;25.00;17.50;;;;;;;0.56;76.17;97330.28;5113007;28;20218;-56
2022/03/10 04:35:29;;;;;;;26.00;17.83;;;;;;;0.57;76.26;97321.53;5125512;28;20200;-56
2022/03/10 04:37:56;;;;;;;23.07;17.10;;;;;;;0.50;76.77;97325.31;5128447;28;20194;-55
2022/03/10 04:40:26;;;;;;;24.13;17.07;;;;;;;0.45;76.60;97333.34;5120107;28;20215;-56
2022/03/10 04:42:52;;;;;;;25.10;17.27;;;;;;;0.46;76.63;97335.00;5113957;28;20206;-57
2022/03/10 04:45:19;;;;;;;26.57;17.57;;;;;;;0.44;77.30;97330.78;5113991;28;20199;-57
2022/03/10 04:47:46;;;;;;;26.77;17.90;;;;;;;0.42;77.38;97337.84;5113547;28;20225;-57
2022/03/10 04:50:14;;;;;;;23.97;17.47;;;;;;;0.40;77.25;97337.88;5114593;28;20532;-57
2022/03/10 04:52:41;;;;;;;23.33;17.60;;;;;;;0.41;77.31;97341.34;5114729;28;20215;-55
2022/03/10 04:55:10;;;;;;;26.07;18.33;;;;;;;0.44;77.34;97342.06;5115132;28;20229;-56
2022/03/10 04:57:39;;;;;;;26.97;18.63;;;;;;;0.47;77.32;97343.66;5113273;28;20264;-56
2022/03/10 05:00:10;;;;;;;27.83;18.80;;;;;;;0.52;77.23;97338.28;5112422;28;20588;-56
2022/03/10 05:02:37;;;;;;;27.37;18.53;;;;;;;0.45;76.92;97327.28;5113155;28;21421;-57
2022/03/10 05:05:04;;;;;;;28.07;18.57;;;;;;;0.41;77.32;97336.13;5113743;28;20209;-56
2022/03/10 05:07:32;;;;;;;27.30;18.70;;;;;;;0.37;77.33;97335.41;5114690;28;20240;-56
2022/03/10 05:09:59;;;;;;;26.53;18.57;;;;;;;0.33;76.15;97336.44;5134516;28;20200;-56
2022/03/10 05:12:25;;;;;;;25.03;18.33;;;;;;;0.33;76.95;97341.66;5137902;28;20223;-56
2022/03/10 05:14:53;;;;;;;27.37;18.37;;;;;;;0.32;77.68;97336.53;5126706;28;20496;-56
2022/03/10 05:17:21;;;;;;;25.43;18.70;;;;;;;0.20;78.29;97337.03;5113914;28;20197;-56
2022/03/10 05:19:47;;;;;;;25.23;19.03;;;;;;;0.12;79.16;97342.53;5113524;28;20219;-56
2022/03/10 05:22:14;;;;;;;33.07;19.70;;;;;;;0.11;77.78;97345.22;5113557;28;20205;-57
2022/03/10 05:24:40;;;;;;;28.93;18.47;;;;;;;0.13;78.04;97344.25;5113463;28;20207;-57
2022/03/10 05:27:06;;;;;;;28.20;18.57;;;;;;;0.21;77.58;97347.38;5121273;28;20212;-57
2022/03/10 05:29:33;;;;;;;27.53;18.93;;;;;;;0.18;77.98;97344.06;5118891;28;20203;-57
2022/03/10 05:32:01;;;;;;;28.90;19.17;;;;;;;0.20;78.13;97334.44;5117184;28;20197;-56
2022/03/10 05:34:28;;;;;;;26.13;17.73;;;;;;;0.22;77.84;97330.84;5113132;28;20216;-56
2022/03/10 05:36:55;;;;;;;27.27;19.27;;;;;;;0.23;77.81;97331.69;5113010;28;20277;-56
2022/03/10 05:39:21;;;;;;;27.50;18.27;;;;;;;0.26;77.91;97339.38;5112686;28;20208;-56
2022/03/10 05:41:48;;;;;;;26.63;18.90;;;;;;;0.28;77.77;97338.41;5113144;28;20296;-56
2022/03/10 05:44:14;;;;;;;26.43;18.13;;;;;;;0.34;77.79;97339.91;5111973;28;20204;-56
2022/03/10 05:46:41;;;;;;;29.20;19.33;;;;;;;0.30;77.83;97340.94;5112533;28;20237;-56
2022/03/10 05:49:09;;;;;;;27.57;20.17;;;;;;;0.23;78.09;97348.16;5112534;28;20303;-56
2022/03/10 05:51:36;;;;;;;27.23;18.80;;;;;;;0.30;78.13;97343.53;5112741;28;20205;-56
2022/03/10 05:54:03;;;;;;;27.23;18.90;;;;;;;0.34;78.27;97343.34;5113167;28;20212;-55
2022/03/10 05:56:29;;;;;;;24.97;18.90;;;;;;;0.39;77.89;97349.19;5113796;28;20254;-56
2022/03/10 05:58:56;;;;;;;31.70;20.20;;;;;;;0.37;77.40;97335.41;5113264;28;20210;-57
2022/03/10 06:01:23;;;;;;;30.87;20.80;;;;;;;0.24;79.01;97349.84;5113260;28;20201;-56
2022/03/10 06:03:49;;;;;;;25.90;18.77;;;;;;;0.33;78.83;97343.41;5112970;28;20189;-56
2022/03/10 06:06:17;;;;;;;32.83;19.90;;;;;;;0.43;77.47;97342.09;5116003;28;20236;-55
2022/03/10 06:08:43;;;;;;;29.03;19.70;;;;;;;0.50;77.07;97341.78;5117851;28;20206;-57
2022/03/10 06:11:10;;;;;;;27.63;19.40;;;;;;;0.76;77.78;97340.69;5118168;28;20205;-56
2022/03/10 06:13:36;;;;;;;24.57;18.33;;;;;;;1.33;76.23;97341.59;5123514;28;20204;-57
2022/03/10 06:16:03;;;;;;;29.50;20.47;;;;;;;1.97;74.26;97350.72;5124109;28;20301;-57
2022/03/10 06:18:31;;;;;;;28.30;20.00;;;;;;;2.26;71.79;97340.63;5115038;28;20210;-57
2022/03/10 06:20:57;;;;;;;31.00;20.23;;;;;;;2.74;70.46;97351.22;5114205;28;20212;-56
2022/03/10 06:23:25;;;;;;;28.47;20.10;;;;;;;3.27;67.69;97351.06;5113298;28;20199;-55
2022/03/10 06:25:51;;;;;;;25.70;18.40;;;;;;;3.37;66.25;97351.41;5113104;28;20207;-57
2022/03/10 06:28:18;;;;;;;23.60;18.43;;;;;;;3.72;64.95;97352.13;5113825;28;20224;-56
2022/03/10 06:30:44;;;;;;;26.80;19.33;;;;;;;4.06;64.40;97353.72;5116298;28;20224;-58
2022/03/10 06:33:11;;;;;;;26.13;20.13;;;;;;;3.89;63.79;97355.50;5118795;28;20208;-59
2022/03/10 06:35:38;;;;;;;25.57;18.93;;;;;;;3.43;64.85;97353.72;5117779;28;20189;-58
2022/03/10 06:38:04;;;;;;;23.80;18.60;;;;;;;3.01;68.00;97352.41;5114892;28;20527;-58
2022/03/10 06:40:33;;;;;;;28.17;20.13;;;;;;;3.02;68.54;97355.88;5113690;28;20488;-57
2022/03/10 06:42:59;;;;;;;25.40;19.40;;;;;;;3.00;68.45;97357.72;5111568;28;20197;-59
2022/03/10 06:45:26;;;;;;;25.10;19.27;;;;;;;2.87;69.26;97357.50;5112345;28;20209;-57
2022/03/10 06:47:53;;;;;;;27.93;20.80;;;;;;;2.75;69.96;97352.94;5111848;28;20225;-58
2022/03/10 06:50:19;;;;;;;27.77;20.57;;;;;;;2.90;69.67;97352.16;5122917;28;20201;-58
2022/03/10 06:52:46;;;;;;;31.17;20.30;;;;;;;3.87;66.45;97357.34;5124990;28;20205;-56
2022/03/10 06:55:12;;;;;;;28.90;20.73;;;;;;;4.66;63.22;97347.59;5113284;28;20197;-58
2022/03/10 06:57:40;;;;;;;30.93;20.70;;;;;;;4.81;61.88;97351.09;5110826;28;20205;-56
2022/03/10 07:00:09;;;;;;;30.27;21.57;;;;;;;4.45;62.22;97354.94;5110501;28;20212;-57
2022/03/10 07:02:38;;;;;;;30.43;22.63;;;;;;;4.23;63.48;97356.22;5110543;28;20224;-57
2022/03/10 07:05:07;;;;;;;28.97;21.97;;;;;;;4.10;64.82;97350.84;5110924;28;20215;-57
2022/03/10 07:07:33;;;;;;;33.13;22.47;;;;;;;3.91;64.89;97360.63;5111104;28;20221;-56
2022/03/10 07:10:00;;;;;;;28.37;21.20;;;;;;;3.72;64.96;97360.81;5111495;28;20208;-55
2022/03/10 07:12:27;;;;;;;30.93;23.07;;;;;;;3.63;65.84;97353.47;5109604;28;20216;-57
2022/03/10 07:14:56;;;;;;;28.40;21.33;;;;;;;3.46;66.48;97357.00;5110875;28;20204;-57
2022/03/10 07:17:22;;;;;;;30.77;23.20;;;;;;;3.43;67.38;97351.09;5114782;28;20208;-56
2022/03/10 07:19:49;;;;;;;32.63;22.63;;;;;;;3.35;67.35;97353.25;5115587;28;20209;-58
2022/03/10 07:22:18;;;;;;;30.03;22.67;;;;;;;3.35;67.74;97348.03;5114819;28;20403;-56
2022/03/10 07:24:44;;;;;;;31.47;22.97;;;;;;;3.36;67.75;97347.13;5109873;28;20209;-56
2022/03/10 07:27:10;;;;;;;33.33;23.47;;;;;;;3.23;68.65;97344.28;5115449;28;20223;-57
2022/03/10 07:29:37;;;;;;;28.57;22.23;;;;;;;3.35;68.63;97354.13;5115572;28;20216;-57
2022/03/10 07:32:06;;;;;;;33.20;22.63;;;;;;;3.33;68.74;97350.72;5115107;28;20228;-57
2022/03/10 07:34:32;;;;;;;33.60;23.50;;;;;;;3.52;67.85;97350.59;5114921;28;20209;-56
2022/03/10 07:36:58;;;;;;;32.40;23.57;;;;;;;3.58;68.09;97347.63;5115567;28;20209;-57
2022/03/10 07:39:26;;;;;;;30.53;22.77;;;;;;;3.58;67.00;97347.63;5115510;28;20193;-59
2022/03/10 07:41:54;;;;;;;34.90;23.10;;;;;;;3.69;66.29;97341.81;5132253;28;20668;-56
2022/03/10 07:44:21;;;;;;;33.33;22.67;;;;;;;3.78;65.86;97352.63;5133208;28;20189;-57
2022/03/10 07:46:49;;;;;;;34.20;24.30;;;;;;;3.73;66.31;97346.81;5116635;28;20311;-56
2022/03/10 07:49:17;;;;;;;30.30;21.90;;;;;;;3.90;66.68;97346.72;5120108;28;20268;-56
2022/03/10 07:51:44;;;;;;;33.77;23.60;;;;;;;3.95;64.78;97338.63;5118340;28;20227;-57
2022/03/10 07:54:11;;;;;;;34.37;22.93;;;;;;;3.92;65.96;97334.41;5130144;28;20193;-57
2022/03/10 07:56:38;;;;;;;43.17;23.77;;;;;;;3.98;64.95;97336.66;5136544;28;20184;-57
2022/03/10 07:59:04;;;;;;;32.00;22.57;;;;;;;4.05;65.06;97329.31;5129173;28;20208;-57
2022/03/10 08:01:31;;;;;;;34.50;23.03;;;;;;;4.10;65.51;97332.53;5120429;28;20193;-57
2022/03/10 08:03:58;;;;;;;88.47;25.80;;;;;;;4.20;65.11;97327.59;5137083;28;20185;-56
2022/03/10 08:06:27;;;;;;;158.97;31.13;;;;;;;4.31;64.95;97330.47;5136520;28;20192;-57
2022/03/10 08:08:57;;;;;;;43.80;22.23;;;;;;;4.31;63.78;97325.22;5125930;28;20209;-58
2022/03/10 08:11:23;;;;;;;37.00;22.83;;;;;;;4.50;63.84;97321.44;5115006;28;20231;-57
2022/03/10 08:13:51;;;;;;;34.67;23.17;;;;;;;4.50;62.62;97317.97;5115151;28;20193;-58
2022/03/10 08:16:18;;;;;;;29.57;21.60;;;;;;;4.58;61.80;97326.22;5114629;28;20212;-57
2022/03/10 08:18:45;;;;;;;31.07;21.40;;;;;;;4.58;62.15;97309.66;5115546;28;20205;-57
2022/03/10 08:21:12;;;;;;;32.80;22.23;;;;;;;4.65;61.62;97317.09;5115175;28;20197;-57
2022/03/10 08:23:39;;;;;;;28.40;20.93;;;;;;;4.80;61.44;97310.09;5115261;28;20272;-57
2022/03/10 08:26:06;;;;;;;31.90;21.73;;;;;;;4.80;61.23;97312.72;5114274;28;20212;-57
2022/03/10 08:28:33;;;;;;;28.70;21.03;;;;;;;4.89;62.03;97307.75;5113450;28;20213;-57
2022/03/10 08:31:01;;;;;;;27.97;19.67;;;;;;;5.01;59.94;97303.56;5113844;28;20201;-57
2022/03/10 08:33:28;;;;;;;28.37;19.87;;;;;;;5.06;59.08;97298.91;5113734;28;20473;-57
2022/03/10 08:35:57;;;;;;;31.37;21.17;;;;;;;5.24;59.66;97296.94;5113565;28;20197;-58
2022/03/10 08:38:25;;;;;;;90.93;26.20;;;;;;;5.32;60.19;97305.13;5114187;28;20274;-56
2022/03/10 08:40:53;;;;;;;40.20;20.93;;;;;;;5.44;59.12;97300.00;5114547;28;20194;-57
2022/03/10 08:43:22;;;;;;;30.50;19.63;;;;;;;5.46;58.01;97297.25;5113404;28;20201;-58
2022/03/10 08:45:48;;;;;;;27.77;19.47;;;;;;;5.49;57.31;97300.53;5114215;28;20293;-57
2022/03/10 08:48:15;;;;;;;27.27;18.33;;;;;;;5.53;56.75;97292.50;5114070;28;20217;-57
2022/03/10 08:50:44;;;;;;;25.77;18.93;;;;;;;5.65;57.05;97292.56;5114251;28;20664;-57
2022/03/10 08:53:10;;;;;;;30.13;19.77;;;;;;;5.71;56.99;97291.31;5119513;28;20197;-57
2022/03/10 08:55:37;;;;;;;40.90;20.47;;;;;;;5.81;57.10;97288.00;5129603;28;20197;-57
2022/03/10 08:58:05;;;;;;;31.23;20.67;;;;;;;5.89;56.65;97283.16;5128554;28;20212;-57
2022/03/10 09:00:32;;;;;;;27.47;19.47;;;;;;;5.95;56.66;97277.50;5113165;28;20233;-57
2022/03/10 09:02:59;;;;;;;25.27;17.50;;;;;;;6.07;54.93;97272.38;5113274;28;20228;-57
2022/03/10 09:05:26;;;;;;;23.80;17.63;;;;;;;6.15;54.30;97272.72;5113646;28;20212;-56
2022/03/10 09:07:52;;;;;;;24.90;16.70;;;;;;;6.25;53.69;97271.19;5113277;28;20224;-58
2022/03/10 09:10:19;;;;;;;26.77;17.90;;;;;;;6.30;53.13;97277.00;5113879;28;20197;-57
2022/03/10 09:12:45;;;;;;;24.27;17.77;;;;;;;6.40;53.18;97264.91;5114295;28;20205;-57
2022/03/10 09:15:13;;;;;;;22.10;17.50;;;;;;;6.69;52.81;97270.84;5113816;28;20217;-56
2022/03/10 09:17:40;;;;;;;25.90;17.30;;;;;;;7.15;53.95;97266.75;5113834;28;20197;-57
2022/03/10 09:20:10;;;;;;;24.23;17.87;;;;;;;7.55;52.06;97267.38;5114002;28;20211;-57
2022/03/10 09:22:37;;;;;;;26.73;18.70;;;;;;;7.73;50.24;97266.06;5121737;28;20226;-58
2022/03/10 09:25:08;;;;;;;27.50;17.80;;;;;;;8.18;48.65;97269.81;5116579;28;20204;-57
2022/03/10 09:27:34;;;;;;;26.03;17.23;;;;;;;8.86;47.76;97258.53;5113354;28;20229;-58
2022/03/10 09:30:01;;;;;;;22.83;16.97;;;;;;;9.41;45.36;97263.84;5113129;28;20228;-57
2022/03/10 09:32:35;;;;;;;21.20;16.60;;;;;;;9.61;44.59;97264.91;5113659;28;20235;-57
2022/03/10 09:35:01;;;;;;;22.90;15.73;;;;;;;9.91;42.10;97265.09;5113882;28;20212;-57
2022/03/10 09:37:28;;;;;;;20.43;16.67;;;;;;;9.96;42.02;97260.28;5119440;28;20197;-57
2022/03/10 09:39:54;;;;;;;24.07;17.90;;;;;;;10.49;42.79;97261.19;5126938;28;20212;-57
2022/03/10 09:42:22;;;;;;;26.73;17.73;;;;;;;10.75;41.76;97256.38;5128863;28;20272;-57
2022/03/10 09:44:49;;;;;;;23.77;17.20;;;;;;;11.37;41.99;97255.47;5115448;28;20205;-57
2022/03/10 09:47:17;;;;;;;40.97;18.23;;;;;;;11.30;40.09;97254.34;5112976;28;20227;-57
2022/03/10 09:49:47;;;;;;;22.60;17.83;;;;;;;11.83;40.32;97261.06;5112729;28;20201;-56
2022/03/10 09:52:13;;;;;;;27.13;18.97;;;;;;;12.02;38.81;97255.00;5113007;28;20204;-57
2022/03/10 09:54:40;;;;;;;29.73;20.23;;;;;;;12.06;39.14;97250.25;5112685;28;20355;-57
2022/03/10 09:57:08;;;;;;;25.63;19.97;;;;;;;12.08;39.68;97254.44;5112441;28;20205;-57
2022/03/10 09:59:51;;;;;;;30.60;19.93;;;;;;;12.43;38.13;97244.13;5079115;27;20578;-57
2022/03/10 10:02:18;;;;;;;36.07;19.70;;;;;;;12.42;37.80;97241.63;5079916;28;20194;-58
2022/03/10 10:04:48;;;;;;;29.00;20.83;;;;;;;12.37;37.89;97241.19;5080580;28;20203;-58
2022/03/10 10:07:15;;;;;;;26.83;20.53;;;;;;;13.01;38.88;97244.06;5081700;28;20282;-58
2022/03/10 10:09:43;;;;;;;31.53;20.90;;;;;;;13.15;37.46;97240.16;5080765;28;20217;-57
2022/03/10 10:12:11;;;;;;;28.97;21.80;;;;;;;13.31;37.65;97237.72;5082632;28;20206;-57
2022/03/10 10:14:39;;;;;;;26.23;20.23;;;;;;;13.36;37.19;97233.63;5080846;28;20221;-57
2022/03/10 10:17:07;;;;;;;27.27;19.80;;;;;;;14.25;35.91;97231.19;5079148;28;20209;-57
2022/03/10 10:19:35;;;;;;;29.30;20.77;;;;;;;14.30;35.65;97234.25;5078685;28;20233;-59
2022/03/10 10:22:12;;;;;;;26.17;21.10;;;;;;;13.69;35.73;97228.75;5078604;28;20650;-56
2022/03/10 10:24:39;;;;;;;28.63;20.60;;;;;;;13.82;35.86;97226.56;5077822;28;20233;-57
2022/03/10 10:27:13;;;;;;;26.63;20.13;;;;;;;13.69;35.07;97223.44;5087395;28;20219;-58
2022/03/10 10:29:47;;;;;;;24.23;19.63;;;;;;;13.97;34.26;97219.75;5098713;28;20201;-57
2022/03/10 10:32:25;;;;;;;24.97;20.30;;;;;;;13.96;34.25;97218.91;5093948;28;20204;-57
2022/03/10 10:35:05;;;;;;;30.33;21.43;;;;;;;13.94;34.88;97212.94;5084863;28;20186;-57
2022/03/10 10:37:34;;;;;;;27.50;21.30;;;;;;;13.85;35.56;97207.69;5079443;28;20213;-57
2022/03/10 10:40:00;;;;;;;26.57;21.70;;;;;;;13.98;34.81;97207.31;5079732;28;20521;-56
2022/03/10 10:42:28;;;;;;;28.40;21.37;;;;;;;14.42;34.99;97201.09;5074855;28;20222;-57
2022/03/10 10:44:56;;;;;;;25.57;20.33;;;;;;;14.33;35.90;97197.53;5078391;28;20203;-57
2022/03/10 10:47:26;;;;;;;26.33;21.40;;;;;;;14.83;34.64;97205.78;5078055;28;20221;-57
2022/03/10 10:50:04;;;;;;;27.20;20.77;;;;;;;14.48;34.20;97197.84;5078255;28;20303;-57
2022/03/10 10:52:39;;;;;;;26.47;21.50;;;;;;;14.22;34.60;97186.25;5077974;28;20264;-55
2022/03/10 10:55:09;;;;;;;27.67;21.10;;;;;;;15.07;35.18;97185.59;5077838;28;20294;-56
2022/03/10 10:57:36;;;;;;;26.47;21.00;;;;;;;15.16;34.53;97179.34;5078317;28;20342;-57
2022/03/10 11:00:10;;;;;;;25.27;21.03;;;;;;;15.91;32.19;97171.31;5078177;28;20194;-56
2022/03/10 11:02:42;;;;;;;24.60;20.33;;;;;;;15.82;33.78;97175.00;5080961;28;20221;-56
2022/03/10 11:05:11;;;;;;;27.77;20.83;;;;;;;16.47;33.39;97167.09;5078310;28;20199;-57
2022/03/10 11:07:38;;;;;;;28.27;22.33;;;;;;;16.18;31.75;97166.72;5077423;28;20210;-56
2022/03/10 11:10:07;;;;;;;24.33;20.80;;;;;;;16.53;32.50;97154.88;5070543;28;20216;-56
2022/03/10 11:12:34;;;;;;;28.30;21.55;;;;;;;16.66;32.32;97155.22;5065372;28;20286;-55
2022/03/10 11:15:02;;;;;;;26.77;20.98;;;;;;;17.17;31.16;97151.31;5064734;28;20227;-56
2022/03/10 11:17:29;;;;;;;26.13;21.00;;;;;;;17.54;30.93;97147.97;5064709;28;20217;-56
2022/03/10 11:19:57;;;;;;;24.95;20.98;;;;;;;17.21;29.92;97150.81;5064169;28;20215;-56
2022/03/10 11:22:29;;;;;;;26.05;22.00;;;;;;;16.69;30.11;97145.06;5064332;28;20199;-57
2022/03/10 11:25:07;;;;;;;28.45;21.38;;;;;;;17.17;30.48;97143.28;5064416;28;20230;-56
2022/03/10 11:27:36;;;;;;;24.38;20.85;;;;;;;17.48;29.93;97128.13;5064750;28;20210;-56
2022/03/10 11:30:06;;;;;;;25.20;21.13;;;;;;;17.66;29.31;97126.06;5064991;28;20194;-56
2022/03/10 11:32:34;;;;;;;26.80;21.70;;;;;;;17.05;29.28;97123.28;5064990;28;20210;-56